AirNav   Textron
 
 935 users online  

IL17 Center Point Heliport
Oak Brook, Illinois, USA

GOING TO OAK BROOK?


FAA INFORMATION EFFECTIVE 20 JULY 2017

Location

FAA Identifier: IL17
Lat/Long: 41-50-59.0000N / 087-55-38.0000W
41-50.983333N / 087-55.633333W
41.8497222 / -87.9272222
(estimated)
Elevation: 660 ft. / 201 m (estimated)
Time zone: UTC -5 (UTC -6 during Standard Time)
Zip code: 60523

Heliport Operations

Heliport use: Private use. Permission required prior to landing
Activation date: 03/2005
Control tower: no
ARTCC: CHICAGO CENTER
FSS: KANKAKEE FLIGHT SERVICE STATION
Attendance: UNATNDD
Wind indicator: yes
Segmented circle: no

Heliport Communications

WX ASOS at ORD (8 nm N): PHONE 773-462-0118
WX ASOS at MDW (9 nm SE): PHONE 773-884-4424
WX AWOS-AV at 06C (11 nm NW): 128.275
WX ASOS at DPA (15 nm W): PHONE 630-584-2728
WX ASOS at PWK (16 nm N): PHONE 847-465-0291
WX AWOS-3 at LOT (16 nm SW): 118.525 (815-588-4802)

Nearby radio navigation aids

VOR radial/distance  VOR name  Freq  Var
ORDr185/8.3CHICAGO O'HARE VOR/DME113.9002E
DPAr095/19.1DUPAGE VOR/DME108.4002E
OBKr179/22.3NORTHBROOK VOR/DME113.0002W
JOTr042/25.3JOLIET VORTAC112.3002E
CGTr320/25.9CHICAGO HEIGHTS VORTAC114.2002E
EONr348/35.3PEOTONE VORTAC113.2002E

Heliport Services

Runway Information

Helipad H1

Dimensions: 56 x 56 ft. / 17 x 17 m
Surface: asphalt
Traffic pattern: leftleft

Heliport Ownership and Management from official FAA records

Ownership: Privately-owned
Owner: CENTER POINT PROPERTIES TRUST
1808 SWIFT DRIVE, STE. A
OAK BROOK, IL 60523-1501
Phone 630-586-8158
Manager: MICHELLE GRANA
1808 SWIFT DRIVE, STE. A
OAK BROOK, IL 60523-1501
Phone (630) 586-8155

Instrument Procedures

There are no published instrument procedures at IL17.

Some nearby airports with instrument procedures:

KORD - Chicago O'Hare International Airport (8 nm N)
KMDW - Chicago Midway International Airport (9 nm SE)
1C5 - Bolingbrook's Clow International Airport (13 nm SW)
KDPA - DuPage Airport (15 nm W)
KPWK - Chicago Executive Airport (16 nm N)
KLOT - Lewis University Airport (16 nm SW)
 
Loc | Ops | Rwys | IFR | FBO | Links
Com | Nav | Svcs | Stats | Notes


 
Area around IL17 (Center Point Heliport)
 
Road maps at: MapQuest Bing Google
 
Aerial photo
No photo
 
Sectional chart

 
Airport distance calculator
Flying to Center Point Heliport? Find the distance to fly.

From to IL17

Sunrise and sunset
Times for 23-Jul-2017
 Local
(UTC-5)
 Zulu
(UTC)
Morning civil twilight05:0510:05
Sunrise05:3810:38
Sunset20:1801:18
Evening civil twilight20:5101:51

Current date and time
Zulu (UTC)  24-Jul-2017 01:52:21
Local (UTC-5)  23-Jul-2017 20:52:21
 
METAR
KORD 
8nm N 
240051Z 26005KT 10SM FEW055 BKN080 BKN150 23/17 A2982 RMK AO2 SLP094 T02280172
KMDW 
9nm SE 
240053Z 33008KT 10SM FEW050 SCT085 BKN150 24/18 A2982 RMK AO2 SLP087 CB DSNT S T02390178 $
4IS3 
15nm E 
SuperAWOS
240115Z AUTO 30004KT 10SM 24/18 A2987
KDPA 
15nm W 
240052Z 00000KT 10SM FEW085 22/19 A2983 RMK AO2 SLP097 T02220194
KLOT 
16nm SW 
240135Z AUTO 35004KT 10SM SCT070 21/18 A2983 RMK AO2 T02050176
KPWK 
16nm N 
240052Z 27004KT 10SM FEW080 23/20 A2983 RMK AO2 SLP097 T02280200 $
TAF
KORD 
8nm N 
232035Z 2321/2424 36015KT P6SM VCTS SCT040 BKN070CB TEMPO 2321/2323 36015G20KT 5SM TSRA FM232300 02007KT P6SM SCT040 FM241200 02011KT P6SM BKN020 FM241800 03010KT P6SM SCT020
KMDW 
9nm SE 
232035Z 2321/2418 27013KT P6SM SCT070 FM232200 32008KT P6SM VCTS SCT040 BKN070CB TEMPO 2322/2323 36015G20KT 6SM -TSRA BKN040CB FM232300 01007KT P6SM SCT040 FM241200 02011KT P6SM BKN020
KDPA 
15nm W 
232035Z 2321/2418 27015KT P6SM SCT070 FM232200 31010KT P6SM VCTS SCT040 BKN070CB TEMPO 2322/2323 36015G20KT 5SM -TSRA FM232300 33005KT P6SM SCT040 FM241200 01008KT P6SM BKN020
NOTAMs
Click for the latest NOTAMs
NOTAMs are issued by the DoD/FAA and will open in a separate window not controlled by AirNav.

 

 
 

Would you like to see your business listed on this page?

 If your business provides an interesting product or service to pilots, flight crews, aircraft, or users of the Center Point Heliport, you should consider listing it here.  To start the listing process, click on the button below
 
Add a business
 

Other Pages about Center Point Heliport

Update a link
 
Copyright © AirNav, LLC. All rights reserved. Privacy Policy  Contact